createdAt,value
2023-03-06T00:00:34.841Z,5.02
2023-03-06T00:04:51.066Z,5.11
2023-03-06T00:09:08.097Z,5.07
2023-03-06T00:13:24.528Z,5.31
2023-03-06T00:17:41.300Z,4.99
2023-03-06T00:21:57.633Z,5.12
2023-03-06T00:26:13.893Z,4.90
2023-03-06T00:30:30.115Z,4.88
2023-03-06T00:34:49.118Z,5.06
2023-03-06T00:39:06.162Z,4.87
2023-03-06T00:43:22.334Z,4.87
2023-03-06T00:47:38.634Z,4.98
2023-03-06T00:51:54.747Z,4.92
2023-03-06T00:56:10.934Z,4.75
2023-03-06T01:00:27.117Z,4.75
2023-03-06T01:04:43.388Z,4.96
2023-03-06T01:08:59.535Z,4.87
2023-03-06T01:13:15.766Z,5.02
2023-03-06T01:17:31.966Z,4.74
2023-03-06T01:21:48.237Z,4.86
2023-03-06T01:26:05.015Z,5.09
2023-03-06T01:30:21.709Z,4.92
2023-03-06T01:34:37.898Z,5.01
2023-03-06T01:38:54.107Z,5.05
2023-03-06T01:43:34.502Z,5.02
2023-03-06T01:47:50.656Z,4.82
2023-03-06T01:52:19.151Z,5.14
2023-03-06T01:56:35.736Z,5.03
2023-03-06T02:00:51.973Z,4.95
2023-03-06T02:05:08.998Z,5.09
2023-03-06T02:09:29.993Z,4.93
2023-03-06T02:13:46.906Z,4.84
2023-03-06T02:18:03.061Z,5.03
2023-03-06T02:22:20.195Z,4.89
2023-03-06T02:26:37.958Z,4.95
2023-03-06T02:30:56.298Z,4.94
2023-03-06T02:35:25.552Z,4.85
2023-03-06T02:39:48.305Z,4.88
2023-03-06T02:44:04.740Z,4.79
2023-03-06T02:48:21.369Z,5.09
2023-03-06T02:52:37.634Z,4.98
2023-03-06T02:56:53.773Z,4.97
2023-03-06T03:01:09.917Z,5.11
2023-03-06T03:05:26.136Z,4.96
2023-03-06T03:09:42.274Z,4.95
2023-03-06T03:13:58.494Z,4.92
2023-03-06T03:18:14.697Z,4.90
2023-03-06T03:22:31.095Z,4.94
2023-03-06T03:26:47.213Z,5.00
2023-03-06T03:31:07.551Z,5.15
2023-03-06T03:35:23.851Z,4.94
2023-03-06T03:39:39.984Z,4.77
2023-03-06T03:43:56.118Z,4.96
2023-03-06T03:48:12.449Z,4.87
2023-03-06T03:52:28.713Z,5.18
2023-03-06T03:56:45.329Z,4.81
2023-03-06T04:01:01.841Z,4.65
2023-03-06T04:05:18.115Z,4.91
2023-03-06T04:09:34.324Z,4.85
2023-03-06T04:13:50.539Z,4.91
2023-03-06T04:18:06.758Z,4.83
2023-03-06T04:22:22.869Z,4.87
2023-03-06T04:26:39.110Z,4.94
2023-03-06T04:30:55.321Z,4.80
2023-03-06T04:35:11.649Z,5.00
2023-03-06T04:39:27.908Z,4.65
2023-03-06T04:43:44.014Z,4.78
2023-03-06T04:48:00.169Z,4.87
2023-03-06T04:52:16.362Z,4.95
2023-03-06T04:56:34.511Z,4.83
2023-03-06T05:00:50.659Z,5.10
2023-03-06T05:05:07.214Z,4.86
2023-03-06T05:09:23.482Z,5.01
2023-03-06T05:13:39.653Z,5.03
2023-03-06T05:17:56.668Z,5.02
2023-03-06T05:22:12.807Z,4.97
2023-03-06T05:26:29.058Z,5.03
2023-03-06T05:30:45.464Z,5.01
2023-03-06T05:35:01.690Z,5.31
2023-03-06T05:39:18.021Z,5.19
2023-03-06T05:43:34.267Z,4.89
2023-03-06T05:47:50.481Z,4.66
2023-03-06T05:52:07.720Z,4.94
2023-03-06T05:56:23.989Z,4.85
2023-03-06T06:00:40.152Z,5.00
2023-03-06T06:04:56.356Z,4.95
2023-03-06T06:09:13.960Z,4.92
2023-03-06T06:13:30.119Z,5.13
2023-03-06T06:17:46.289Z,4.56
2023-03-06T06:22:03.962Z,5.01
2023-03-06T06:26:20.838Z,4.58
2023-03-06T06:30:37.485Z,4.98
2023-03-06T06:34:53.823Z,4.26
2023-03-06T06:39:11.959Z,4.06
2023-03-06T06:43:29.328Z,4.24
2023-03-06T06:47:46.363Z,4.11
2023-03-06T06:52:02.701Z,4.10
2023-03-06T06:56:19.003Z,4.25
2023-03-06T07:00:35.250Z,4.08
2023-03-06T07:05:03.193Z,3.99
2023-03-06T07:09:22.488Z,4.39
2023-03-06T07:13:39.088Z,4.32
2023-03-06T07:17:55.342Z,4.60
2023-03-06T07:22:11.483Z,4.66
2023-03-06T07:26:28.319Z,4.48
2023-03-06T07:30:44.634Z,4.94
2023-03-06T07:35:19.081Z,4.96
2023-03-06T07:39:35.922Z,5.00
2023-03-06T07:43:52.208Z,5.08
2023-03-06T07:48:08.354Z,4.93
2023-03-06T07:52:24.853Z,5.09
2023-03-06T07:56:41.037Z,4.99
2023-03-06T08:00:57.162Z,4.99
2023-03-06T08:05:15.419Z,5.06
2023-03-06T08:09:31.651Z,5.26
2023-03-06T08:13:49.092Z,5.16
2023-03-06T08:18:05.337Z,5.11
2023-03-06T08:22:21.433Z,5.15
2023-03-06T08:26:37.645Z,5.22
2023-03-06T08:30:54.076Z,5.27
2023-03-06T08:35:15.380Z,5.34
2023-03-06T08:39:31.813Z,5.32
2023-03-06T08:43:48.435Z,5.55
2023-03-06T08:48:04.644Z,5.67
2023-03-06T08:52:20.866Z,5.36
2023-03-06T08:56:37.052Z,5.62
2023-03-06T09:00:55.285Z,5.48
2023-03-06T09:05:11.696Z,5.59
2023-03-06T09:09:28.059Z,5.49
2023-03-06T09:13:44.478Z,5.49
2023-03-06T09:18:00.733Z,5.53
2023-03-06T09:22:16.931Z,5.29
2023-03-06T09:26:45.022Z,5.56
2023-03-06T09:31:07.130Z,5.79
2023-03-06T09:35:23.305Z,5.51
2023-03-06T09:39:39.467Z,5.60
2023-03-06T09:44:08.776Z,5.68
2023-03-06T09:48:37.593Z,5.63
2023-03-06T09:53:12.098Z,5.70
2023-03-06T09:57:31.867Z,5.52
2023-03-06T10:02:19.439Z,5.66
2023-03-06T10:06:47.921Z,5.41
2023-03-06T10:11:12.178Z,5.67
2023-03-06T10:15:32.772Z,5.74
2023-03-06T10:19:50.103Z,6.12
2023-03-06T10:24:25.528Z,5.99
2023-03-06T10:28:53.730Z,6.15
2023-03-06T10:33:33.530Z,5.75
2023-03-06T10:37:58.666Z,6.14
2023-03-06T10:42:17.016Z,6.27
2023-03-06T10:46:45.261Z,6.37
2023-03-06T10:51:24.978Z,6.47
2023-03-06T10:55:41.309Z,6.40
2023-03-06T11:00:08.248Z,6.80
2023-03-06T11:04:35.930Z,6.94
2023-03-06T11:08:52.040Z,7.01
2023-03-06T11:13:27.042Z,7.24
2023-03-06T11:17:52.824Z,6.72
2023-03-06T11:22:19.129Z,6.90
2023-03-06T11:27:26.212Z,7.15
2023-03-06T11:32:05.695Z,7.28
2023-03-06T11:36:37.434Z,7.02
2023-03-06T11:41:02.685Z,7.06
2023-03-06T11:45:46.063Z,7.06
2023-03-06T11:50:20.316Z,7.39
2023-03-06T11:54:38.594Z,7.28
2023-03-06T11:59:24.079Z,7.50
2023-03-06T12:04:24.719Z,7.27
2023-03-06T12:08:57.871Z,6.91
2023-03-06T12:13:27.928Z,6.88
2023-03-06T12:18:00.863Z,7.26
2023-03-06T12:22:32.477Z,7.08
2023-03-06T12:27:02.165Z,7.29
2023-03-06T12:32:08.798Z,6.97
2023-03-06T12:36:37.311Z,6.75
2023-03-06T12:41:19.110Z,6.73
2023-03-06T12:45:39.220Z,6.95
2023-03-06T12:50:13.966Z,7.04
2023-03-06T12:54:35.811Z,7.14
2023-03-06T12:58:53.225Z,6.61
2023-03-06T13:03:24.994Z,6.90
2023-03-06T13:07:41.115Z,6.92
2023-03-06T13:12:11.224Z,6.65
2023-03-06T13:16:33.292Z,6.68
2023-03-06T13:20:51.045Z,6.80
2023-03-06T13:25:18.424Z,6.63
2023-03-06T13:29:37.247Z,6.79
2023-03-06T13:33:59.750Z,7.03
2023-03-06T13:38:53.680Z,6.94
2023-03-06T13:43:10.225Z,6.00
2023-03-06T13:52:36.565Z,6.85
2023-03-06T13:57:02.499Z,6.90
2023-03-06T14:01:42.184Z,6.74
2023-03-06T14:05:59.210Z,6.83
2023-03-06T14:10:17.354Z,6.73
2023-03-06T14:14:59.941Z,6.75
2023-03-06T14:19:19.868Z,6.82
2023-03-06T14:23:42.607Z,7.06
2023-03-06T14:28:12.397Z,6.80
2023-03-06T14:32:30.485Z,6.98
2023-03-06T14:36:51.960Z,6.79
2023-03-06T14:41:11.733Z,7.01
2023-03-06T14:45:29.142Z,7.01
2023-03-06T14:49:45.360Z,6.99
2023-03-06T14:54:04.836Z,7.19
2023-03-06T14:58:47.053Z,7.18
2023-03-06T15:03:06.135Z,7.14
2023-03-06T15:07:30.509Z,7.13
2023-03-06T15:11:58.594Z,6.97
2023-03-06T15:16:14.847Z,6.98
2023-03-06T15:20:37.209Z,6.83
2023-03-06T15:24:53.925Z,6.81
2023-03-06T15:29:10.841Z,6.80
2023-03-06T15:33:27.488Z,6.71
2023-03-06T15:37:45.712Z,6.55
2023-03-06T15:42:07.569Z,6.81
2023-03-06T15:46:25.855Z,6.95
2023-03-06T15:50:42.020Z,6.84
2023-03-06T15:55:00.259Z,6.83
2023-03-06T15:59:23.740Z,6.88
2023-03-06T16:03:39.739Z,6.53
2023-03-06T16:07:55.938Z,6.58
2023-03-06T16:12:19.747Z,6.57
2023-03-06T16:16:39.711Z,6.51
2023-03-06T16:20:56.075Z,6.41
2023-03-06T16:25:13.319Z,6.59
2023-03-06T16:29:30.468Z,6.71
2023-03-06T16:33:46.607Z,6.27
2023-03-06T16:38:02.841Z,6.55
2023-03-06T16:42:19.077Z,6.35
2023-03-06T16:46:37.401Z,6.37
2023-03-06T16:50:53.534Z,6.46
2023-03-06T16:55:12.100Z,6.33
2023-03-06T16:59:28.252Z,6.23
2023-03-06T17:03:45.301Z,6.19
2023-03-06T17:08:01.711Z,6.49
2023-03-06T17:12:17.955Z,6.27
2023-03-06T17:16:34.351Z,6.24
2023-03-06T17:20:52.250Z,6.24
2023-03-06T17:25:09.310Z,6.20
2023-03-06T17:29:27.636Z,6.10
2023-03-06T17:33:44.360Z,6.32
2023-03-06T17:38:00.623Z,6.19
2023-03-06T17:42:17.138Z,6.27
2023-03-06T17:46:34.858Z,6.28
2023-03-06T17:50:55.667Z,5.73
2023-03-06T17:55:11.939Z,5.94
2023-03-06T17:59:34.092Z,5.93
2023-03-06T18:03:51.277Z,5.90
2023-03-06T18:08:08.536Z,5.59
2023-03-06T18:12:24.754Z,5.89
2023-03-06T18:16:41.292Z,6.08
2023-03-06T18:20:57.780Z,5.82
2023-03-06T18:25:13.974Z,5.88
2023-03-06T18:29:30.256Z,5.84
2023-03-06T18:33:48.778Z,5.89
2023-03-06T18:38:07.005Z,5.81
2023-03-06T18:42:23.269Z,5.93
2023-03-06T18:46:39.667Z,5.55
2023-03-06T18:50:55.907Z,5.74
2023-03-06T18:55:12.415Z,5.77
2023-03-06T18:59:28.667Z,5.67
2023-03-06T19:03:44.988Z,5.61
2023-03-06T19:08:01.102Z,5.62
2023-03-06T19:12:17.626Z,5.36
2023-03-06T19:16:33.849Z,5.56
2023-03-06T19:20:50.335Z,5.05
2023-03-06T19:25:07.973Z,5.44
2023-03-06T19:29:24.091Z,5.44
2023-03-06T19:33:41.406Z,5.21
2023-03-06T19:37:57.501Z,5.18
2023-03-06T19:42:14.004Z,5.14
2023-03-06T19:46:31.985Z,4.90
2023-03-06T19:50:48.139Z,5.11
2023-03-06T19:55:04.421Z,4.87
2023-03-06T19:59:20.550Z,4.93
2023-03-06T20:03:36.811Z,4.80
2023-03-06T20:07:53.164Z,4.73
2023-03-06T20:12:09.353Z,4.78
2023-03-06T20:16:28.110Z,4.86
2023-03-06T20:20:44.354Z,4.91
2023-03-06T20:25:00.518Z,4.33
2023-03-06T20:29:16.932Z,4.86
2023-03-06T20:33:33.041Z,4.96
2023-03-06T20:37:49.185Z,4.57
2023-03-06T20:42:05.769Z,4.79
2023-03-06T20:46:23.213Z,4.89
2023-03-06T20:50:39.364Z,4.87
2023-03-06T20:54:55.504Z,4.93
2023-03-06T20:59:12.598Z,4.77
2023-03-06T21:03:29.392Z,4.68
2023-03-06T21:07:45.580Z,4.63
2023-03-06T21:12:01.798Z,4.67
2023-03-06T21:16:20.185Z,4.96
2023-03-06T21:20:39.385Z,4.75
2023-03-06T21:24:55.483Z,4.44
2023-03-06T21:29:11.716Z,4.50
2023-03-06T21:33:28.681Z,4.69
2023-03-06T21:37:45.677Z,4.55
2023-03-06T21:42:02.447Z,4.64
2023-03-06T21:46:18.690Z,4.68
2023-03-06T21:50:35.333Z,4.53
2023-03-06T21:54:51.618Z,4.71
2023-03-06T21:59:07.752Z,4.68
2023-03-06T22:03:24.099Z,4.75
2023-03-06T22:07:40.892Z,4.78
2023-03-06T22:11:57.538Z,4.63
2023-03-06T22:16:14.438Z,4.71
2023-03-06T22:20:30.747Z,4.53
2023-03-06T22:24:48.665Z,4.46
2023-03-06T22:29:04.901Z,4.66
2023-03-06T22:33:21.106Z,4.79
2023-03-06T22:37:37.394Z,4.88
2023-03-06T22:41:56.372Z,4.80
2023-03-06T22:46:15.308Z,4.47
2023-03-06T22:50:31.443Z,4.58
2023-03-06T22:54:47.621Z,4.49
2023-03-06T22:59:04.559Z,4.50
2023-03-06T23:03:20.837Z,4.63
2023-03-06T23:07:37.316Z,4.69
2023-03-06T23:11:53.466Z,4.73
2023-03-06T23:16:09.897Z,4.69
2023-03-06T23:20:26.045Z,4.67
2023-03-06T23:24:42.275Z,4.46
2023-03-06T23:28:59.049Z,4.27
2023-03-06T23:33:15.233Z,4.32
2023-03-06T23:37:31.420Z,4.26
2023-03-06T23:41:47.568Z,4.40
2023-03-06T23:46:04.181Z,4.23
2023-03-06T23:50:20.389Z,4.32
2023-03-06T23:54:36.595Z,4.42
2023-03-06T23:58:53.384Z,4.51
